createdAt,value
2023-11-04T00:00:23.028Z,97055.69
2023-11-04T00:02:50.082Z,97058.84
2023-11-04T00:05:16.890Z,97061.16
2023-11-04T00:07:43.954Z,97058.03
2023-11-04T00:10:11.478Z,97041.50
2023-11-04T00:12:38.785Z,97037.19
2023-11-04T00:15:07.087Z,97035.25
2023-11-04T00:17:34.070Z,97016.81
2023-11-04T00:20:00.855Z,97021.59
2023-11-04T00:22:27.586Z,97011.06
2023-11-04T00:24:54.969Z,97004.47
2023-11-04T00:27:22.304Z,96996.31
2023-11-04T00:29:49.357Z,96993.59
2023-11-04T00:32:16.383Z,96992.84
2023-11-04T00:34:46.063Z,96977.25
2023-11-04T00:37:12.833Z,96975.41
2023-11-04T00:39:39.601Z,96971.19
2023-11-04T00:42:06.540Z,96964.56
2023-11-04T00:44:33.372Z,96942.97
2023-11-04T00:47:00.752Z,96954.03
2023-11-04T00:49:27.657Z,96940.66
2023-11-04T00:51:54.634Z,96926.22
2023-11-04T00:54:21.363Z,96921.88
2023-11-04T00:56:48.333Z,96919.97
2023-11-04T00:59:15.211Z,96913.31
2023-11-04T01:01:42.755Z,96904.28
2023-11-04T01:04:09.719Z,96893.31
2023-11-04T01:06:36.658Z,96886.63
2023-11-04T01:09:05.098Z,96878.03
2023-11-04T01:11:31.871Z,96878.03
2023-11-04T01:13:59.341Z,96871.31
2023-11-04T01:16:26.161Z,96859.13
2023-11-04T01:18:53.123Z,96854.44
2023-11-04T01:21:20.079Z,96859.13
2023-11-04T01:23:46.925Z,96850.06
2023-11-04T01:26:13.641Z,96850.44
2023-11-04T01:28:40.435Z,96841.00
2023-11-04T01:31:07.720Z,96835.50
2023-11-04T01:33:34.565Z,96831.19
2023-11-04T01:36:01.644Z,96819.84
2023-11-04T01:38:28.468Z,96808.84
2023-11-04T01:40:55.874Z,96794.75
2023-11-04T01:43:30.435Z,96785.75
2023-11-04T01:46:10.617Z,96787.78
2023-11-04T01:48:38.016Z,96787.00
2023-11-04T01:51:05.556Z,96786.66
2023-11-04T01:53:33.757Z,96781.19
2023-11-04T01:56:01.744Z,96772.19
2023-11-04T01:58:30.373Z,96771.78
2023-11-04T02:00:59.323Z,96765.53
2023-11-04T02:03:26.767Z,96758.47
2023-11-04T02:05:53.951Z,96758.13
2023-11-04T02:08:21.144Z,96749.53
2023-11-04T02:10:48.494Z,96751.13
2023-11-04T02:13:15.302Z,96744.47
2023-11-04T02:15:42.122Z,96733.03
2023-11-04T02:18:09.131Z,96729.50
2023-11-04T02:20:36.298Z,96727.53
2023-11-04T02:23:03.016Z,96720.88
2023-11-04T02:25:33.364Z,96706.75
2023-11-04T02:28:00.054Z,96696.16
2023-11-04T02:30:27.090Z,96698.03
2023-11-04T02:32:53.964Z,96692.53
2023-11-04T02:35:22.198Z,96678.75
2023-11-04T02:37:49.245Z,96675.59
2023-11-04T02:40:16.634Z,96666.16
2023-11-04T02:42:43.635Z,96665.31
2023-11-04T02:45:12.282Z,96650.38
2023-11-04T02:47:39.189Z,96649.19
2023-11-04T02:50:06.541Z,96640.16
2023-11-04T02:52:33.235Z,96629.16
2023-11-04T02:54:59.936Z,96628.41
2023-11-04T02:57:26.829Z,96613.47
2023-11-04T02:59:53.648Z,96605.66
2023-11-04T03:02:21.623Z,96592.25
2023-11-04T03:04:48.448Z,96581.25
2023-11-04T03:07:15.310Z,96582.41
2023-11-04T03:09:42.094Z,96570.22
2023-11-04T03:12:09.028Z,96561.13
2023-11-04T03:14:36.072Z,96554.41
2023-11-04T03:17:03.102Z,96545.34
2023-11-04T03:19:29.841Z,96530.75
2023-11-04T03:21:57.741Z,96521.66
2023-11-04T03:24:25.864Z,96513.44
2023-11-04T03:26:53.316Z,96509.47
2023-11-04T03:29:19.984Z,96494.53
2023-11-04T03:31:46.698Z,96489.81
2023-11-04T03:34:13.554Z,96493.34
2023-11-04T03:36:40.363Z,96481.13
2023-11-04T03:39:07.293Z,96475.63
2023-11-04T03:41:34.310Z,96473.66
2023-11-04T03:44:01.048Z,96471.69
2023-11-04T03:46:27.776Z,96456.75
2023-11-04T03:48:54.555Z,96454.00
2023-11-04T03:51:21.312Z,96439.06
2023-11-04T03:53:55.756Z,96437.09
2023-11-04T03:56:23.522Z,96425.31
2023-11-04T03:58:50.263Z,96430.81
2023-11-04T04:01:17.033Z,96425.31
2023-11-04T04:03:43.792Z,96412.78
2023-11-04T04:06:10.943Z,96407.28
2023-11-04T04:08:37.605Z,96415.09
2023-11-04T04:11:04.903Z,96408.03
2023-11-04T04:13:31.781Z,96403.31
2023-11-04T04:15:58.463Z,96398.59
2023-11-04T04:18:25.297Z,96385.63
2023-11-04T04:20:52.066Z,96388.38
2023-11-04T04:23:18.815Z,96393.88
2023-11-04T04:25:45.504Z,96372.22
2023-11-04T04:28:12.319Z,96360.03
2023-11-04T04:30:38.997Z,96357.63
2023-11-04T04:33:06.653Z,96352.91
2023-11-04T04:35:33.555Z,96348.53
2023-11-04T04:38:00.262Z,96347.31
2023-11-04T04:40:28.764Z,96340.19
2023-11-04T04:42:55.851Z,96335.47
2023-11-04T04:45:22.746Z,96330.66
2023-11-04T04:47:49.529Z,96332.97
2023-11-04T04:50:16.379Z,96320.34
2023-11-04T04:52:43.059Z,96311.25
2023-11-04T04:55:09.803Z,96303.00
2023-11-04T04:57:39.273Z,96293.56
2023-11-04T05:00:07.909Z,96291.91
2023-11-04T05:02:37.677Z,96283.22
2023-11-04T05:05:04.802Z,96275.31
2023-11-04T05:07:31.549Z,96271.38
2023-11-04T05:09:58.831Z,96275.66
2023-11-04T05:12:25.672Z,96267.41
2023-11-04T05:14:52.359Z,96268.16
2023-11-04T05:17:19.407Z,96256.75
2023-11-04T05:19:47.779Z,96238.59
2023-11-04T05:22:14.499Z,96237.84
2023-11-04T05:24:41.392Z,96225.63
2023-11-04T05:27:08.135Z,96243.66
2023-11-04T05:29:35.511Z,96246.41
2023-11-04T05:32:02.263Z,96227.69
2023-11-04T05:34:28.975Z,96236.81
2023-11-04T05:36:55.707Z,96243.16
2023-11-04T05:39:22.539Z,96221.28
2023-11-04T05:41:49.330Z,96204.84
2023-11-04T05:44:16.931Z,96207.28
2023-11-04T05:46:47.641Z,96187.69
2023-11-04T05:49:14.995Z,96176.34
2023-11-04T05:51:41.764Z,96169.31
2023-11-04T05:54:13.034Z,96155.56
2023-11-04T05:56:39.935Z,96154.00
2023-11-04T05:59:06.698Z,96154.78
2023-11-04T06:01:33.436Z,96130.03
2023-11-04T06:04:00.325Z,96131.59
2023-11-04T06:06:27.204Z,96113.88
2023-11-04T06:08:54.671Z,96120.94
2023-11-04T06:11:23.978Z,96103.66
2023-11-04T06:13:51.104Z,96100.13
2023-11-04T06:16:17.822Z,96096.19
2023-11-04T06:18:46.567Z,96093.44
2023-11-04T06:21:19.260Z,96087.47
2023-11-04T06:23:45.956Z,96079.59
2023-11-04T06:26:12.642Z,96083.09
2023-11-04T06:28:40.942Z,96074.44
2023-11-04T06:31:11.567Z,96075.94
2023-11-04T06:33:38.369Z,96062.19
2023-11-04T06:36:06.108Z,96064.09
2023-11-04T06:38:37.767Z,96054.63
2023-11-04T06:41:06.038Z,96063.22
2023-11-04T06:43:34.129Z,96070.28
2023-11-04T06:46:06.223Z,96066.28
2023-11-04T06:48:33.021Z,96078.84
2023-11-04T06:50:59.796Z,96115.25
2023-11-04T06:53:26.470Z,96101.88
2023-11-04T06:55:53.432Z,96088.13
2023-11-04T06:58:20.092Z,96091.28
2023-11-04T07:00:46.929Z,96078.31
2023-11-04T07:03:13.779Z,96068.50
2023-11-04T07:05:42.018Z,96067.31
2023-11-04T07:08:08.760Z,96063.00
2023-11-04T07:10:38.424Z,96059.06
2023-11-04T07:13:05.372Z,96059.84
2023-11-04T07:15:33.134Z,96056.63
2023-11-04T07:17:59.870Z,96066.44
2023-11-04T07:20:27.168Z,96054.25
2023-11-04T07:22:53.850Z,96041.69
2023-11-04T07:25:20.987Z,96042.00
2023-11-04T07:27:47.725Z,96032.22
2023-11-04T07:30:15.200Z,96034.53
2023-11-04T07:32:42.734Z,96032.97
2023-11-04T07:35:11.208Z,96022.75
2023-11-04T07:37:38.535Z,96024.72
2023-11-04T07:40:09.752Z,96011.44
2023-11-04T07:42:36.934Z,95996.91
2023-11-04T07:45:03.773Z,95997.69
2023-11-04T07:47:30.461Z,95999.22
2023-11-04T07:49:57.208Z,95985.13
2023-11-04T07:52:23.926Z,95981.19
2023-11-04T07:54:50.862Z,95975.69
2023-11-04T07:57:17.839Z,95976.44
2023-11-04T07:59:45.613Z,95966.22
2023-11-04T08:02:12.285Z,95957.53
2023-11-04T08:04:40.445Z,95962.56
2023-11-04T08:07:10.337Z,95960.16
2023-11-04T08:09:37.280Z,95953.44
2023-11-04T08:12:03.944Z,95958.94
2023-11-04T08:14:30.659Z,95958.94
2023-11-04T08:16:57.275Z,95961.69
2023-11-04T08:19:24.030Z,95950.69
2023-11-04T08:21:52.554Z,95947.16
2023-11-04T08:24:19.392Z,95946.84
2023-11-04T08:26:46.069Z,95939.03
2023-11-04T08:29:12.821Z,95932.75
2023-11-04T08:31:39.474Z,95937.50
2023-11-04T08:34:06.329Z,95937.94
2023-11-04T08:36:33.224Z,95940.25
2023-11-04T08:39:00.412Z,95934.75
2023-11-04T08:41:27.126Z,95926.81
2023-11-04T08:43:53.797Z,95928.38
2023-11-04T08:46:20.615Z,95914.94
2023-11-04T08:48:47.506Z,95919.56
2023-11-04T08:51:14.300Z,95911.63
2023-11-04T08:53:41.004Z,95913.06
2023-11-04T08:56:08.257Z,95905.91
2023-11-04T08:58:38.412Z,95910.53
2023-11-04T09:01:05.840Z,95906.47
2023-11-04T09:03:32.579Z,95902.38
2023-11-04T09:05:59.451Z,95898.28
2023-11-04T09:08:26.216Z,95903.56
2023-11-04T09:10:54.118Z,95899.78
2023-11-04T09:13:22.318Z,95887.78
2023-11-04T09:15:49.049Z,95892.28
2023-11-04T09:18:18.419Z,95883.44
2023-11-04T09:20:47.244Z,95891.13
2023-11-04T09:23:14.019Z,95886.28
2023-11-04T09:25:40.666Z,95880.66
2023-11-04T09:28:07.587Z,95891.53
2023-11-04T09:30:34.437Z,95882.84
2023-11-04T09:33:01.411Z,95883.94
2023-11-04T09:35:28.189Z,95889.31
2023-11-04T09:37:54.890Z,95887.63
2023-11-04T09:40:21.537Z,95885.22
2023-11-04T09:42:48.828Z,95891.41
2023-11-04T09:45:17.870Z,95890.03
2023-11-04T09:47:44.603Z,95893.00
2023-11-04T09:50:11.445Z,95886.16
2023-11-04T09:52:39.693Z,95886.00
2023-11-04T09:55:08.140Z,95889.09
2023-11-04T09:57:35.903Z,95884.22
2023-11-04T10:00:04.765Z,95888.06
2023-11-04T10:02:31.469Z,95883.31
2023-11-04T10:04:59.795Z,95871.09
2023-11-04T10:07:26.511Z,95880.88
2023-11-04T10:09:55.027Z,95884.88
2023-11-04T10:12:25.211Z,95869.56
2023-11-04T10:14:51.946Z,95879.03
2023-11-04T10:17:19.004Z,95877.94
2023-11-04T10:19:45.783Z,95873.66
2023-11-04T10:22:13.697Z,95872.56
2023-11-04T10:24:40.424Z,95882.50
2023-11-04T10:27:07.161Z,95875.44
2023-11-04T10:29:34.488Z,95882.16
2023-11-04T10:32:05.021Z,95874.38
2023-11-04T10:34:36.048Z,95872.81
2023-11-04T10:37:14.565Z,95867.31
2023-11-04T10:39:48.090Z,95868.84
2023-11-04T10:42:20.465Z,95870.38
2023-11-04T10:44:48.328Z,95877.13
2023-11-04T10:47:36.449Z,95875.88
2023-11-04T10:50:24.356Z,95874.38
2023-11-04T10:53:11.871Z,95866.41
2023-11-04T10:55:49.705Z,95862.09
2023-11-04T10:58:31.075Z,95845.91
2023-11-04T11:00:59.119Z,95850.97
2023-11-04T11:03:27.078Z,95842.56
2023-11-04T11:05:55.956Z,95841.22
2023-11-04T11:08:23.628Z,95836.34
2023-11-04T11:11:03.448Z,95832.25
2023-11-04T11:13:36.039Z,95831.19
2023-11-04T11:16:03.605Z,95824.34
2023-11-04T11:18:30.663Z,95820.69
2023-11-04T11:21:11.280Z,95811.47
2023-11-04T11:23:39.217Z,95818.41
2023-11-04T11:26:13.636Z,95816.28
2023-11-04T11:28:42.106Z,95813.38
2023-11-04T11:31:14.091Z,95821.19
2023-11-04T11:33:43.772Z,95813.69
2023-11-04T11:36:14.726Z,95817.22
2023-11-04T11:38:42.020Z,95812.47
2023-11-04T11:41:12.198Z,95814.00
2023-11-04T11:43:39.143Z,95811.25
2023-11-04T11:46:07.240Z,95805.41
2023-11-04T11:48:41.667Z,95797.16
2023-11-04T11:51:13.554Z,95792.72
2023-11-04T11:53:47.444Z,95794.88
2023-11-04T11:56:14.262Z,95792.28
2023-11-04T11:58:41.481Z,95796.91
2023-11-04T12:01:09.497Z,95788.50
2023-11-04T12:03:37.437Z,95792.63
2023-11-04T12:06:05.082Z,95783.75
2023-11-04T12:08:32.391Z,95779.31
2023-11-04T12:10:59.327Z,95783.44
2023-11-04T12:13:26.461Z,95786.38
2023-11-04T12:15:54.053Z,95783.47
2023-11-04T12:18:21.209Z,95785.63
2023-11-04T12:20:48.130Z,95790.69
2023-11-04T12:23:15.779Z,95778.13
2023-11-04T12:25:43.517Z,95781.97
2023-11-04T12:28:11.251Z,95776.75
2023-11-04T12:30:38.458Z,95780.88
2023-11-04T12:33:05.569Z,95775.84
2023-11-04T12:35:35.175Z,95773.22
2023-11-04T12:38:02.345Z,95767.13
2023-11-04T12:40:30.792Z,95763.72
2023-11-04T12:43:03.359Z,95761.44
2023-11-04T12:45:31.095Z,95761.88
2023-11-04T12:47:59.430Z,95766.94
2023-11-04T12:50:26.311Z,95767.25
2023-11-04T12:52:54.511Z,95771.53
2023-11-04T12:55:21.966Z,95781.34
2023-11-04T12:57:49.181Z,95782.56
2023-11-04T13:00:16.311Z,95778.56
2023-11-04T13:02:44.761Z,95784.41
2023-11-04T13:05:11.896Z,95791.47
2023-11-04T13:07:39.055Z,95786.56
2023-11-04T13:10:09.863Z,95789.97
2023-11-04T13:12:36.877Z,95792.53
2023-11-04T13:15:04.193Z,95789.97
2023-11-04T13:17:31.802Z,95787.94
2023-11-04T13:19:58.600Z,95780.91
2023-11-04T13:22:26.477Z,95796.69
2023-11-04T13:24:53.334Z,95778.75
2023-11-04T13:27:21.524Z,95785.34
2023-11-04T13:29:49.331Z,95793.47
2023-11-04T13:32:16.243Z,95785.66
2023-11-04T13:34:43.079Z,95798.41
2023-11-04T13:37:09.854Z,95795.34
2023-11-04T13:39:36.662Z,95808.38
2023-11-04T13:42:03.414Z,95804.84
2023-11-04T13:44:32.177Z,95801.78
2023-11-04T13:46:59.221Z,95802.56
2023-11-04T13:49:29.060Z,95800.09
2023-11-04T13:51:55.894Z,95810.50
2023-11-04T13:54:22.605Z,95809.91
2023-11-04T13:56:50.173Z,95814.66
2023-11-04T13:59:16.821Z,95810.81
2023-11-04T14:01:47.614Z,95814.06
2023-11-04T14:04:14.967Z,95816.94
2023-11-04T14:06:41.866Z,95814.19
2023-11-04T14:09:08.668Z,95820.16
2023-11-04T14:11:35.386Z,95823.09
2023-11-04T14:14:02.144Z,95820.31
2023-11-04T14:16:28.876Z,95819.06
2023-11-04T14:18:55.795Z,95821.09
2023-11-04T14:21:22.709Z,95826.16
2023-11-04T14:23:49.573Z,95829.69
2023-11-04T14:26:16.229Z,95828.78
2023-11-04T14:28:42.872Z,95823.25
2023-11-04T14:31:09.574Z,95832.28
2023-11-04T14:33:36.398Z,95830.75
2023-11-04T14:36:04.438Z,95838.25
2023-11-04T14:38:31.110Z,95841.81
2023-11-04T14:40:58.126Z,95838.75
2023-11-04T14:43:24.946Z,95849.63
2023-11-04T14:45:52.665Z,95843.31
2023-11-04T14:48:19.414Z,95847.31
2023-11-04T14:50:46.352Z,95855.91
2023-11-04T14:53:13.033Z,95866.94
2023-11-04T14:55:39.954Z,95854.38
2023-11-04T14:58:07.057Z,95858.38
2023-11-04T15:00:33.824Z,95855.59
2023-11-04T15:03:00.937Z,95858.66
2023-11-04T15:05:27.661Z,95864.66
2023-11-04T15:07:54.377Z,95869.72
2023-11-04T15:10:21.287Z,95872.78
2023-11-04T15:12:48.539Z,95877.09
2023-11-04T15:15:52.815Z,95875.53
2023-11-04T15:18:19.521Z,95878.31
2023-11-04T15:21:07.096Z,95871.88
2023-11-04T15:23:33.848Z,95874.47
2023-11-04T15:26:00.502Z,95876.75
2023-11-04T15:28:27.539Z,95884.69
2023-11-04T15:30:54.310Z,95888.34
2023-11-04T15:33:22.059Z,95886.84
2023-11-04T15:35:49.633Z,95888.53
2023-11-04T15:38:16.253Z,95891.72
2023-11-04T15:40:43.154Z,95895.72
2023-11-04T15:43:10.214Z,95895.41
2023-11-04T15:45:37.290Z,95892.66
2023-11-04T15:48:04.889Z,95910.13
2023-11-04T15:50:31.783Z,95907.03
2023-11-04T15:52:58.433Z,95902.44
2023-11-04T15:55:25.195Z,95916.22
2023-11-04T15:57:51.946Z,95907.31
2023-11-04T16:00:18.878Z,95915.28
2023-11-04T16:02:48.418Z,95913.72
2023-11-04T16:05:15.424Z,95920.03
2023-11-04T16:07:43.258Z,95919.25
2023-11-04T16:10:13.218Z,95923.25
2023-11-04T16:12:40.614Z,95928.44
2023-11-04T16:15:10.795Z,95935.97
2023-11-04T16:17:37.817Z,95933.63
2023-11-04T16:20:05.179Z,95929.78
2023-11-04T16:22:32.001Z,95923.50
2023-11-04T16:24:58.782Z,95936.09
2023-11-04T16:27:25.733Z,95938.53
2023-11-04T16:29:52.410Z,95937.00
2023-11-04T16:32:20.246Z,95948.78
2023-11-04T16:34:47.184Z,95951.69
2023-11-04T16:37:13.908Z,95965.47
2023-11-04T16:39:44.584Z,95965.47
2023-11-04T16:42:11.488Z,95969.78
2023-11-04T16:44:38.193Z,95971.00
2023-11-04T16:47:05.799Z,95977.75
2023-11-04T16:49:32.839Z,95975.41
2023-11-04T16:51:59.545Z,95988.44
2023-11-04T16:54:26.271Z,95990.44
2023-11-04T16:56:52.954Z,95993.22
2023-11-04T16:59:19.653Z,95994.84
2023-11-04T17:01:47.246Z,95996.41
2023-11-04T17:04:14.081Z,96001.59
2023-11-04T17:06:40.936Z,95998.84
2023-11-04T17:09:10.879Z,96007.13
2023-11-04T17:11:38.750Z,96004.38
2023-11-04T17:14:06.309Z,96006.34
2023-11-04T17:16:34.263Z,96015.84
2023-11-04T17:19:02.156Z,96021.81
2023-11-04T17:21:28.943Z,96020.25
2023-11-04T17:23:56.209Z,96025.03
2023-11-04T17:26:22.999Z,96028.22
2023-11-04T17:28:49.818Z,96021.19
2023-11-04T17:31:16.550Z,96034.97
2023-11-04T17:33:43.838Z,96031.44
2023-11-04T17:36:10.940Z,96040.13
2023-11-04T17:38:37.672Z,96035.09
2023-11-04T17:41:04.658Z,96048.09
2023-11-04T17:43:31.540Z,96052.06
2023-11-04T17:45:58.429Z,96049.78
2023-11-04T17:48:26.267Z,96051.75
2023-11-04T17:50:53.167Z,96056.06
2023-11-04T17:53:20.784Z,96057.59
2023-11-04T17:55:47.563Z,96064.66
2023-11-04T17:58:14.811Z,96072.59
2023-11-04T18:00:41.513Z,96084.41
2023-11-04T18:03:08.797Z,96088.38
2023-11-04T18:05:35.749Z,96079.00
2023-11-04T18:08:03.658Z,96095.56
2023-11-04T18:10:30.425Z,96100.28
2023-11-04T18:12:57.076Z,96106.69
2023-11-04T18:15:23.819Z,96109.13
2023-11-04T18:17:51.698Z,96110.03
2023-11-04T18:20:18.434Z,96123.59
2023-11-04T18:22:45.197Z,96125.72
2023-11-04T18:25:11.898Z,96123.06
2023-11-04T18:27:51.105Z,96131.03
2023-11-04T18:30:25.462Z,96137.09
2023-11-04T18:32:52.426Z,96141.84
2023-11-04T18:35:19.553Z,96148.56
2023-11-04T18:37:46.377Z,96157.28
2023-11-04T18:40:13.463Z,96158.16
2023-11-04T18:42:40.338Z,96170.84
2023-11-04T18:45:09.293Z,96167.75
2023-11-04T18:47:36.130Z,96158.72
2023-11-04T18:50:02.909Z,96166.22
2023-11-04T18:52:31.183Z,96175.72
2023-11-04T18:54:58.351Z,96187.94
2023-11-04T18:57:25.414Z,96182.44
2023-11-04T18:59:52.400Z,96192.25
2023-11-04T19:02:22.916Z,96192.25
2023-11-04T19:04:49.916Z,96198.97
2023-11-04T19:07:16.800Z,96195.75
2023-11-04T19:09:43.547Z,96197.75
2023-11-04T19:12:10.766Z,96202.03
2023-11-04T19:14:37.540Z,96193.00
2023-11-04T19:17:04.480Z,96202.91
2023-11-04T19:19:31.161Z,96214.81
2023-11-04T19:21:57.980Z,96206.69
2023-11-04T19:24:24.768Z,96213.53
2023-11-04T19:26:51.495Z,96211.28
2023-11-04T19:29:18.258Z,96217.66
2023-11-04T19:31:44.948Z,96222.94
2023-11-04T19:34:11.702Z,96219.50
2023-11-04T19:36:38.377Z,96233.06
2023-11-04T19:39:05.328Z,96240.34
2023-11-04T19:41:32.103Z,96241.53
2023-11-04T19:43:58.844Z,96240.84
2023-11-04T19:46:28.414Z,96243.81
2023-11-04T19:48:55.559Z,96244.34
2023-11-04T19:51:22.379Z,96246.09
2023-11-04T19:53:50.117Z,96252.13
2023-11-04T19:56:16.792Z,96258.19
2023-11-04T19:58:43.732Z,96257.53
2023-11-04T20:01:10.697Z,96269.47
2023-11-04T20:03:37.662Z,96264.50
2023-11-04T20:06:04.845Z,96278.34
2023-11-04T20:08:33.678Z,96276.50
2023-11-04T20:11:00.440Z,96275.00
2023-11-04T20:13:27.406Z,96280.25
2023-11-04T20:15:54.594Z,96289.03
2023-11-04T20:18:21.341Z,96299.38
2023-11-04T20:20:48.858Z,96308.50
2023-11-04T20:23:15.984Z,96305.03
2023-11-04T20:25:42.692Z,96316.03
2023-11-04T20:28:11.843Z,96316.16
2023-11-04T20:30:38.517Z,96324.81
2023-11-04T20:33:06.350Z,96329.56
2023-11-04T20:35:33.146Z,96335.47
2023-11-04T20:37:59.988Z,96335.53
2023-11-04T20:40:27.842Z,96339.19
2023-11-04T20:42:55.208Z,96345.09
2023-11-04T20:45:23.714Z,96356.88
2023-11-04T20:47:50.489Z,96353.34
2023-11-04T20:50:17.280Z,96358.84
2023-11-04T20:52:43.985Z,96362.03
2023-11-04T20:55:10.797Z,96363.56
2023-11-04T20:57:37.657Z,96377.75
2023-11-04T21:00:05.973Z,96385.22
2023-11-04T21:02:32.764Z,96389.94
2023-11-04T21:04:59.550Z,96394.31
2023-11-04T21:07:26.470Z,96402.22
2023-11-04T21:09:54.346Z,96405.41
2023-11-04T21:12:21.175Z,96410.53
2023-11-04T21:14:47.824Z,96413.28
2023-11-04T21:17:14.583Z,96416.03
2023-11-04T21:19:41.371Z,96417.25
2023-11-04T21:22:08.295Z,96426.69
2023-11-04T21:24:35.029Z,96414.16
2023-11-04T21:27:01.870Z,96427.88
2023-11-04T21:29:28.590Z,96425.16
2023-11-04T21:31:55.342Z,96429.88
2023-11-04T21:34:22.219Z,96439.75
2023-11-04T21:36:49.699Z,96441.72
2023-11-04T21:39:16.902Z,96439.75
2023-11-04T21:41:44.433Z,96450.31
2023-11-04T21:44:11.206Z,96451.88
2023-11-04T21:46:38.226Z,96466.38
2023-11-04T21:49:05.190Z,96469.13
2023-11-04T21:51:31.938Z,96470.34
2023-11-04T21:53:58.626Z,96473.09
2023-11-04T21:56:25.421Z,96477.03
2023-11-04T21:58:52.128Z,96486.13
2023-11-04T22:01:18.810Z,96484.94
2023-11-04T22:03:46.889Z,96488.13
2023-11-04T22:06:14.175Z,96483.03
2023-11-04T22:08:42.778Z,96485.00
2023-11-04T22:11:10.880Z,96495.25
2023-11-04T22:13:37.572Z,96494.47
2023-11-04T22:16:04.614Z,96496.84
2023-11-04T22:18:31.843Z,96496.09
2023-11-04T22:20:58.575Z,96505.53
2023-11-04T22:23:25.394Z,96511.84
2023-11-04T22:25:52.646Z,96511.09
2023-11-04T22:28:19.478Z,96518.91
2023-11-04T22:30:46.628Z,96526.81
2023-11-04T22:33:13.567Z,96522.06
2023-11-04T22:35:40.385Z,96530.41
2023-11-04T22:38:07.133Z,96541.03
2023-11-04T22:40:34.009Z,96538.66
2023-11-04T22:43:00.784Z,96555.94
2023-11-04T22:45:27.555Z,96557.91
2023-11-04T22:47:55.242Z,96558.28
2023-11-04T22:50:22.150Z,96562.19
2023-11-04T22:52:48.937Z,96561.44
2023-11-04T22:55:15.818Z,96559.84
2023-11-04T22:57:42.674Z,96561.81
2023-11-04T23:00:29.839Z,96572.03
2023-11-04T23:02:57.796Z,96576.41
2023-11-04T23:05:25.040Z,96581.06
2023-11-04T23:07:51.812Z,96585.38
2023-11-04T23:10:18.585Z,96592.41
2023-11-04T23:12:48.189Z,96597.56
2023-11-04T23:15:18.267Z,96599.91
2023-11-04T23:17:45.026Z,96603.84
2023-11-04T23:20:13.393Z,96616.41
2023-11-04T23:22:40.585Z,96612.44
2023-11-04T23:25:14.976Z,96620.28
2023-11-04T23:27:47.522Z,96617.88
2023-11-04T23:30:14.264Z,96622.59
2023-11-04T23:32:41.102Z,96639.88
2023-11-04T23:35:08.165Z,96648.47
2023-11-04T23:37:34.889Z,96645.28
2023-11-04T23:40:01.814Z,96654.69
2023-11-04T23:42:28.511Z,96655.38
2023-11-04T23:44:55.188Z,96658.47
2023-11-04T23:47:21.995Z,96661.59
2023-11-04T23:49:48.907Z,96669.00
2023-11-04T23:52:15.714Z,96666.63
2023-11-04T23:54:42.494Z,96670.06
2023-11-04T23:57:09.273Z,96677.13
2023-11-04T23:59:36.272Z,96673.94
